Terminal Aerodrome Forecast
Issued by NWS

Home | Current Version | Previous Version | Text Only | Print | Product List | Glossary On
Versions: 1 2 3 4 5 6 7 8 9 10 11 12
000
FTUS46 KLOX 312300 RRA
TAFVNY
TAF
KVNY 312340Z 0100/0124 15010KT P6SM SKC
     FM010300 13006KT P6SM SKC
     FM010500 VRB03KT P6SM SKC
     FM011800 14004KT P6SM SKC
     FM012100 15009KT P6SM SKC=

USA.gov is the U.S. government's official web portal to all federal, state and local government web resources and services.